Time;durP1;ratioP1;P1;durP2;ratioP2;P2;SDS_P1;SDS_P2;PMS_P1;PMS_P2;Temp;Humidity;BMP_temperature;BMP_pressure;BME280_temperature;BME280_humidity;BME280_pressure;Samples;Min_cycle;Max_cycle;Signal;HPM_P1;HPM_P2
2023/10/29 00:00:34;;;;;;;1.48;1.38;;;19.50;79.70;;;;;;5092660;28;20237;-70
2023/10/29 00:03:00;;;;;;;1.63;1.33;;;19.50;79.70;;;;;;5090071;28;20180;-71
2023/10/29 00:05:26;;;;;;;1.35;1.25;;;19.50;79.70;;;;;;5106179;28;20289;-70
2023/10/29 00:07:52;;;;;;;1.50;1.40;;;19.50;79.70;;;;;;5114062;28;20552;-70
2023/10/29 00:10:17;;;;;;;1.83;1.30;;;19.50;79.70;;;;;;5100503;28;20242;-70
2023/10/29 00:12:43;;;;;;;1.27;1.10;;;19.50;79.70;;;;;;5067269;28;20184;-70
2023/10/29 00:15:10;;;;;;;1.70;1.60;;;19.50;79.60;;;;;;5105747;28;20216;-70
2023/10/29 00:17:36;;;;;;;2.50;1.38;;;19.50;79.70;;;;;;5093238;28;20177;-70
2023/10/29 00:20:06;;;;;;;1.38;1.25;;;19.50;79.80;;;;;;5084577;28;20650;-70
2023/10/29 00:22:32;;;;;;;1.42;1.25;;;19.50;79.70;;;;;;5082868;28;20199;-70
2023/10/29 00:24:58;;;;;;;1.50;1.40;;;19.50;79.70;;;;;;5103009;28;20208;-71
2023/10/29 00:27:24;;;;;;;1.30;1.20;;;19.50;79.80;;;;;;5106193;28;20670;-70
2023/10/29 00:29:50;;;;;;;1.20;1.10;;;19.50;79.70;;;;;;5070546;28;20210;-70
2023/10/29 00:32:18;;;;;;;1.50;1.40;;;19.50;79.70;;;;;;5085870;28;20181;-70
2023/10/29 00:34:48;;;;;;;1.42;1.33;;;19.50;79.70;;;;;;5089264;28;20210;-71
2023/10/29 00:37:17;;;;;;;1.00;1.00;;;19.50;79.70;;;;;;5076126;28;20643;-71
2023/10/29 00:39:43;;;;;;;1.10;1.00;;;19.50;79.70;;;;;;5111165;28;20183;-71
2023/10/29 00:42:12;;;;;;;0.98;0.95;;;19.50;79.60;;;;;;5092392;28;20187;-70
2023/10/29 00:44:38;;;;;;;1.08;1.08;;;19.50;79.70;;;;;;5079599;28;20212;-71
2023/10/29 00:47:05;;;;;;;1.30;1.20;;;19.50;79.60;;;;;;5090559;28;20180;-71
2023/10/29 00:49:33;;;;;;;1.30;1.20;;;19.50;79.50;;;;;;5074513;28;20180;-71
2023/10/29 00:51:59;;;;;;;1.45;1.35;;;19.50;79.50;;;;;;5095152;28;20184;-70
2023/10/29 00:54:26;;;;;;;1.60;1.30;;;19.50;79.60;;;;;;5092910;28;20184;-70
2023/10/29 00:56:53;;;;;;;1.25;1.15;;;19.50;79.60;;;;;;5086338;28;20172;-71
2023/10/29 00:59:21;;;;;;;1.38;1.27;;;19.50;79.60;;;;;;5084685;28;20184;-71
2023/10/29 01:01:48;;;;;;;1.25;1.15;;;19.50;79.50;;;;;;5072518;28;20177;-70
2023/10/29 01:04:15;;;;;;;1.30;1.20;;;19.50;79.50;;;;;;5103283;28;20201;-71
2023/10/29 01:06:44;;;;;;;1.10;1.00;;;19.50;79.40;;;;;;5101869;28;20199;-70
2023/10/29 01:09:11;;;;;;;1.33;1.20;;;19.50;79.40;;;;;;5083512;28;20332;-70
2023/10/29 01:11:37;;;;;;;1.10;1.00;;;19.50;79.60;;;;;;5093577;28;20204;-70
2023/10/29 01:14:02;;;;;;;1.38;1.27;;;19.50;79.60;;;;;;5088903;28;20180;-70
2023/10/29 01:16:28;;;;;;;1.05;1.05;;;19.50;79.40;;;;;;5086594;28;20204;-71
2023/10/29 01:19:01;;;;;;;1.20;1.10;;;19.50;79.50;;;;;;5077939;28;20184;-71
2023/10/29 01:21:28;;;;;;;0.93;0.93;;;19.50;79.40;;;;;;5109078;28;20195;-71
2023/10/29 01:23:55;;;;;;;0.90;0.90;;;19.50;79.50;;;;;;5087322;28;20177;-70
2023/10/29 01:26:21;;;;;;;1.98;1.10;;;19.50;79.50;;;;;;5107511;28;20212;-71
2023/10/29 01:28:47;;;;;;;1.67;1.13;;;19.50;79.40;;;;;;5093136;28;20210;-70
2023/10/29 01:31:13;;;;;;;1.70;1.10;;;19.50;79.40;;;;;;5090492;28;20211;-71
2023/10/29 01:33:39;;;;;;;0.90;0.90;;;19.50;79.50;;;;;;5073291;28;20196;-70
2023/10/29 01:36:06;;;;;;;1.00;1.00;;;19.50;79.40;;;;;;5091315;28;20228;-71
2023/10/29 01:38:32;;;;;;;1.17;1.10;;;19.50;79.50;;;;;;5089761;28;20185;-70
2023/10/29 01:40:59;;;;;;;1.10;1.00;;;19.50;79.40;;;;;;5076250;28;20181;-71
2023/10/29 01:43:25;;;;;;;1.15;1.05;;;19.50;79.40;;;;;;5092956;28;20271;-71
2023/10/29 01:45:52;;;;;;;1.08;1.00;;;19.50;79.30;;;;;;5091030;28;20204;-71
2023/10/29 01:48:19;;;;;;;1.00;1.00;;;19.50;79.30;;;;;;5066156;28;20185;-71
2023/10/29 01:50:46;;;;;;;1.13;1.02;;;19.50;79.20;;;;;;5074062;28;20296;-70
2023/10/29 01:53:12;;;;;;;0.98;0.98;;;19.50;79.20;;;;;;5072105;28;20180;-71
2023/10/29 01:55:38;;;;;;;0.80;0.80;;;19.50;79.20;;;;;;5083525;28;20204;-70
2023/10/29 01:58:04;;;;;;;1.00;1.00;;;19.50;79.30;;;;;;5090496;28;20184;-70
2023/10/29 02:00:30;;;;;;;1.15;1.05;;;19.50;79.40;;;;;;5074520;28;20188;-71
2023/10/29 02:02:56;;;;;;;1.08;0.93;;;19.50;79.20;;;;;;5082301;28;20229;-71
2023/10/29 02:05:22;;;;;;;1.48;1.20;;;19.50;79.40;;;;;;5082144;28;20212;-71
2023/10/29 02:07:48;;;;;;;0.90;0.90;;;19.50;79.40;;;;;;5076833;28;20179;-71
2023/10/29 02:10:14;;;;;;;1.05;0.98;;;19.50;79.20;;;;;;5090395;28;20220;-71
2023/10/29 02:12:40;;;;;;;1.10;1.00;;;19.50;79.30;;;;;;5111263;28;20176;-71
2023/10/29 02:15:07;;;;;;;0.93;0.90;;;19.50;79.40;;;;;;5092757;28;20215;-71
2023/10/29 02:17:33;;;;;;;1.02;0.93;;;19.50;79.30;;;;;;5075845;28;20179;-71
2023/10/29 02:19:58;;;;;;;1.23;1.13;;;19.50;79.30;;;;;;5096324;28;20176;-71
2023/10/29 02:22:30;;;;;;;0.70;0.70;;;19.50;79.30;;;;;;5115980;28;20215;-70
2023/10/29 02:24:55;;;;;;;1.27;1.17;;;19.50;79.40;;;;;;5096127;28;20207;-70
2023/10/29 02:27:22;;;;;;;1.10;1.00;;;19.50;79.40;;;;;;5095083;28;20183;-71
2023/10/29 02:29:47;;;;;;;0.95;0.77;;;19.50;79.20;;;;;;5092856;28;20568;-70
2023/10/29 02:32:13;;;;;;;0.82;0.82;;;19.50;79.30;;;;;;5093663;28;20229;-71
2023/10/29 02:34:39;;;;;;;0.77;0.75;;;19.50;79.10;;;;;;5093816;28;20222;-70
2023/10/29 02:37:05;;;;;;;0.93;0.90;;;19.50;79.20;;;;;;5091922;28;20180;-70
2023/10/29 02:39:30;;;;;;;1.42;0.90;;;19.50;79.10;;;;;;5096471;28;20181;-71
2023/10/29 02:41:56;;;;;;;0.80;0.80;;;19.50;79.20;;;;;;5089307;28;20225;-70
2023/10/29 02:44:22;;;;;;;1.30;1.10;;;19.50;79.10;;;;;;5080164;28;20191;-71
2023/10/29 02:46:47;;;;;;;0.90;0.90;;;19.50;79.10;;;;;;5096737;28;20186;-70
2023/10/29 02:49:14;;;;;;;1.00;1.00;;;19.50;79.10;;;;;;5097278;28;20186;-70
2023/10/29 02:51:40;;;;;;;1.15;1.15;;;19.50;79.20;;;;;;5089235;28;20633;-71
2023/10/29 02:54:06;;;;;;;1.33;0.80;;;19.50;79.20;;;;;;5096040;28;20233;-71
2023/10/29 02:56:31;;;;;;;0.85;0.85;;;19.50;79.20;;;;;;5096122;28;20208;-71
2023/10/29 02:58:57;;;;;;;1.52;0.93;;;19.50;79.20;;;;;;5096741;28;20237;-70
2023/10/29 03:01:23;;;;;;;1.35;1.25;;;19.50;79.20;;;;;;5080952;28;20181;-71
2023/10/29 03:03:49;;;;;;;1.02;1.00;;;19.50;79.10;;;;;;5096220;28;20188;-70
2023/10/29 03:06:15;;;;;;;1.55;0.90;;;19.40;79.00;;;;;;5088826;28;20235;-71
2023/10/29 03:08:40;;;;;;;0.82;0.80;;;19.50;79.10;;;;;;5111887;28;20185;-70
2023/10/29 03:11:06;;;;;;;1.10;1.00;;;19.50;79.20;;;;;;5096607;28;20200;-71
2023/10/29 03:13:32;;;;;;;0.93;0.93;;;19.50;79.20;;;;;;5114314;28;20176;-71
2023/10/29 03:15:57;;;;;;;1.17;1.08;;;19.50;79.30;;;;;;5096417;28;20227;-71
2023/10/29 03:18:23;;;;;;;0.70;0.70;;;19.40;79.10;;;;;;5096713;28;20195;-71
2023/10/29 03:20:49;;;;;;;1.10;1.00;;;19.50;79.20;;;;;;5096386;28;20231;-71
2023/10/29 03:23:15;;;;;;;0.70;0.70;;;19.50;79.20;;;;;;5088611;28;20219;-70
2023/10/29 03:25:41;;;;;;;1.63;1.20;;;19.50;79.20;;;;;;5079397;28;20211;-70
2023/10/29 03:28:07;;;;;;;0.75;0.75;;;19.50;79.00;;;;;;5092605;28;20279;-71
2023/10/29 03:30:33;;;;;;;1.13;1.00;;;19.50;79.10;;;;;;5078591;28;20204;-70
2023/10/29 03:32:59;;;;;;;0.90;0.80;;;19.40;78.90;;;;;;5079544;28;20172;-70
2023/10/29 03:35:28;;;;;;;0.85;0.82;;;19.50;79.00;;;;;;5087838;28;20294;-70
2023/10/29 03:37:54;;;;;;;0.98;0.98;;;19.50;79.00;;;;;;5071648;28;20192;-70
2023/10/29 03:40:20;;;;;;;1.00;1.00;;;19.50;79.00;;;;;;5079550;28;20192;-71
2023/10/29 03:42:47;;;;;;;0.88;0.88;;;19.50;79.00;;;;;;5079662;28;20188;-70
2023/10/29 03:45:13;;;;;;;0.85;0.80;;;19.50;78.90;;;;;;5087640;28;20211;-70
2023/10/29 03:47:42;;;;;;;0.80;0.80;;;19.50;78.90;;;;;;5114511;28;20184;-70
2023/10/29 03:50:08;;;;;;;0.90;0.90;;;19.40;78.80;;;;;;5096367;28;20699;-71
2023/10/29 03:52:34;;;;;;;0.93;0.93;;;19.50;79.00;;;;;;5088085;28;20195;-70
2023/10/29 03:55:00;;;;;;;0.70;0.70;;;19.50;79.00;;;;;;5107510;28;20200;-70
2023/10/29 03:57:26;;;;;;;1.00;1.00;;;19.40;78.80;;;;;;5092991;28;20189;-70
2023/10/29 03:59:53;;;;;;;1.00;1.00;;;19.50;79.00;;;;;;5079704;28;20180;-70
2023/10/29 04:02:19;;;;;;;0.90;0.90;;;19.50;79.00;;;;;;5098076;28;20215;-71
2023/10/29 04:04:45;;;;;;;1.58;1.00;;;19.40;78.70;;;;;;5094433;28;20275;-70
2023/10/29 04:07:11;;;;;;;0.95;0.95;;;19.40;78.60;;;;;;5076636;28;20188;-70
2023/10/29 04:09:37;;;;;;;0.85;0.80;;;19.40;78.80;;;;;;5085459;28;20693;-71
2023/10/29 04:12:03;;;;;;;0.90;0.90;;;19.50;78.90;;;;;;5100349;28;20177;-70
2023/10/29 04:14:29;;;;;;;0.90;0.90;;;19.50;78.80;;;;;;5076090;28;20176;-71
2023/10/29 04:16:55;;;;;;;1.00;0.90;;;19.40;78.70;;;;;;5095783;28;20180;-70
2023/10/29 04:19:20;;;;;;;0.90;0.90;;;19.40;78.80;;;;;;5094843;28;20220;-71
2023/10/29 04:21:46;;;;;;;0.73;0.73;;;19.40;78.80;;;;;;5094802;28;20188;-71
2023/10/29 04:24:12;;;;;;;1.23;1.13;;;19.40;78.70;;;;;;5066630;28;20570;-70
2023/10/29 04:26:38;;;;;;;1.20;0.90;;;19.50;78.80;;;;;;5076415;28;20212;-70
2023/10/29 04:29:04;;;;;;;1.10;1.00;;;19.50;78.70;;;;;;5094674;28;20192;-71
2023/10/29 04:31:30;;;;;;;1.02;0.98;;;19.50;78.80;;;;;;5096433;28;20212;-71
2023/10/29 04:33:56;;;;;;;1.00;0.80;;;19.50;78.60;;;;;;5069915;28;20226;-70
2023/10/29 04:36:22;;;;;;;0.90;0.90;;;19.40;78.70;;;;;;5092151;28;20204;-71
2023/10/29 04:38:49;;;;;;;0.80;0.80;;;19.40;78.60;;;;;;5077283;28;20181;-71
2023/10/29 04:41:15;;;;;;;0.65;0.65;;;19.40;78.70;;;;;;5093110;28;20196;-71
2023/10/29 04:43:43;;;;;;;1.13;0.80;;;19.40;78.50;;;;;;5093520;28;20272;-70
2023/10/29 04:46:10;;;;;;;0.60;0.60;;;19.40;78.50;;;;;;5099863;28;20213;-70
2023/10/29 04:48:37;;;;;;;0.80;0.80;;;19.40;78.60;;;;;;5077781;28;20195;-71
2023/10/29 04:51:06;;;;;;;1.08;0.90;;;19.40;78.50;;;;;;5082296;28;20223;-71
2023/10/29 04:53:36;;;;;;;1.00;1.00;;;19.40;78.60;;;;;;5087914;28;20180;-71
2023/10/29 04:56:03;;;;;;;0.90;0.90;;;19.40;78.50;;;;;;5092892;28;20206;-71
2023/10/29 04:58:29;;;;;;;0.70;0.70;;;19.40;78.60;;;;;;5103943;28;20169;-71
2023/10/29 05:00:58;;;;;;;0.85;0.85;;;19.40;78.50;;;;;;5077249;28;20205;-71
2023/10/29 05:03:24;;;;;;;0.80;0.80;;;19.40;78.50;;;;;;5090658;28;20209;-71
2023/10/29 05:05:50;;;;;;;1.30;0.80;;;19.40;78.50;;;;;;5077552;28;20773;-71
2023/10/29 05:08:16;;;;;;;0.98;0.90;;;19.40;78.50;;;;;;5078046;28;20263;-70
2023/10/29 05:10:44;;;;;;;0.60;0.60;;;19.40;78.30;;;;;;5085976;28;20362;-70
2023/10/29 05:13:10;;;;;;;0.82;0.80;;;19.50;78.60;;;;;;5090071;28;20184;-70
2023/10/29 05:15:36;;;;;;;0.70;0.70;;;19.50;78.50;;;;;;5085046;28;20238;-72
2023/10/29 05:18:02;;;;;;;0.85;0.82;;;19.40;78.30;;;;;;5077135;28;20181;-72
2023/10/29 05:20:27;;;;;;;0.65;0.65;;;19.40;78.10;;;;;;5075874;28;20219;-71
2023/10/29 05:22:53;;;;;;;0.70;0.70;;;19.40;78.20;;;;;;5083843;28;20173;-71
2023/10/29 05:25:19;;;;;;;0.70;0.70;;;19.40;78.20;;;;;;5090806;28;20216;-71
2023/10/29 05:27:52;;;;;;;0.95;0.80;;;19.50;78.30;;;;;;5087683;28;20195;-71
2023/10/29 05:30:19;;;;;;;1.20;1.10;;;19.40;78.10;;;;;;5087579;28;20219;-71
2023/10/29 05:32:44;;;;;;;0.80;0.70;;;19.40;78.10;;;;;;5090541;28;20238;-71
2023/10/29 05:35:10;;;;;;;0.82;0.82;;;19.40;78.10;;;;;;5089287;28;20242;-72
2023/10/29 05:37:36;;;;;;;0.80;0.70;;;19.40;78.10;;;;;;5103480;28;20177;-71
2023/10/29 05:40:04;;;;;;;0.90;0.90;;;19.40;78.10;;;;;;5095647;28;20664;-71
2023/10/29 05:42:37;;;;;;;1.00;0.90;;;19.40;78.10;;;;;;5079287;28;20196;-71
2023/10/29 05:45:03;;;;;;;0.70;0.70;;;19.40;78.10;;;;;;5088342;28;20287;-71
2023/10/29 05:47:29;;;;;;;0.82;0.82;;;19.50;78.30;;;;;;5112268;28;20188;-71
2023/10/29 05:49:55;;;;;;;1.00;0.70;;;19.40;78.10;;;;;;5103569;28;20235;-71
2023/10/29 05:52:21;;;;;;;0.70;0.70;;;19.50;78.30;;;;;;5093753;28;20182;-71
2023/10/29 05:54:47;;;;;;;0.68;0.60;;;19.50;78.30;;;;;;5074901;28;20574;-71
2023/10/29 05:57:13;;;;;;;0.88;0.80;;;19.50;78.30;;;;;;5082003;28;20199;-71
2023/10/29 05:59:39;;;;;;;0.80;0.80;;;19.40;78.10;;;;;;5104970;28;20192;-71
2023/10/29 06:02:04;;;;;;;1.38;0.73;;;19.50;78.30;;;;;;5089388;28;20192;-72
2023/10/29 06:04:30;;;;;;;0.77;0.77;;;19.40;78.20;;;;;;5077084;28;20203;-71
2023/10/29 06:06:56;;;;;;;1.48;0.90;;;19.40;78.10;;;;;;5068591;28;20180;-70
2023/10/29 06:09:21;;;;;;;1.02;0.80;;;19.40;78.10;;;;;;5094313;28;20184;-71
2023/10/29 06:11:47;;;;;;;0.70;0.70;;;19.40;78.10;;;;;;5076686;28;20746;-71
2023/10/29 06:14:13;;;;;;;0.85;0.85;;;19.40;78.10;;;;;;5090369;28;20189;-72
2023/10/29 06:16:39;;;;;;;0.73;0.73;;;19.40;78.10;;;;;;5110462;28;20226;-71
2023/10/29 06:19:04;;;;;;;0.70;0.60;;;19.40;78.00;;;;;;5075763;28;20230;-71
2023/10/29 06:21:30;;;;;;;0.80;0.70;;;19.40;78.00;;;;;;5075275;28;20602;-71
2023/10/29 06:23:56;;;;;;;0.93;0.80;;;19.50;78.10;;;;;;5096468;28;20195;-71
2023/10/29 06:26:23;;;;;;;0.60;0.60;;;19.40;78.00;;;;;;5090364;28;20239;-71
2023/10/29 06:28:49;;;;;;;1.00;0.90;;;19.40;78.10;;;;;;5093916;28;20180;-71
2023/10/29 06:31:15;;;;;;;0.70;0.70;;;19.50;78.00;;;;;;5111695;28;20317;-71
2023/10/29 06:33:41;;;;;;;1.15;0.77;;;19.40;78.00;;;;;;5105258;28;20180;-71
2023/10/29 06:36:08;;;;;;;0.52;0.52;;;19.50;79.00;;;;;;5067101;28;20680;-71
2023/10/29 06:38:35;;;;;;;0.70;0.70;;;19.50;78.30;;;;;;5080168;28;20686;-72
2023/10/29 06:41:02;;;;;;;0.70;0.70;;;19.40;78.00;;;;;;5099847;28;20221;-71
2023/10/29 06:43:27;;;;;;;0.77;0.77;;;19.50;78.30;;;;;;5105679;28;20608;-71
2023/10/29 06:45:53;;;;;;;1.45;0.75;;;19.40;78.00;;;;;;5064852;28;20216;-71
2023/10/29 06:48:19;;;;;;;1.20;0.85;;;19.40;78.00;;;;;;5105708;28;20322;-71
2023/10/29 06:50:45;;;;;;;0.60;0.60;;;19.40;78.00;;;;;;5073982;28;20237;-71
2023/10/29 06:53:11;;;;;;;0.55;0.55;;;19.40;78.00;;;;;;5088680;28;20238;-71
2023/10/29 06:55:37;;;;;;;0.90;0.70;;;19.40;78.00;;;;;;5086531;28;20209;-71
2023/10/29 06:58:03;;;;;;;0.60;0.60;;;19.40;78.00;;;;;;5105713;28;20180;-71
2023/10/29 07:00:31;;;;;;;0.80;0.75;;;19.50;78.20;;;;;;5082154;28;20571;-71
2023/10/29 07:02:57;;;;;;;0.70;0.60;;;19.50;78.10;;;;;;5097596;28;20184;-71
2023/10/29 07:05:23;;;;;;;0.70;0.70;;;19.50;78.10;;;;;;5090872;28;20220;-71
2023/10/29 07:07:48;;;;;;;0.80;0.80;;;19.40;77.90;;;;;;5091722;28;20184;-71
2023/10/29 07:10:14;;;;;;;0.50;0.50;;;19.40;77.90;;;;;;5075407;28;20212;-71
2023/10/29 07:12:40;;;;;;;1.50;1.02;;;19.40;77.80;;;;;;5103455;28;20184;-72
2023/10/29 07:15:09;;;;;;;0.80;0.70;;;19.40;78.00;;;;;;5086087;28;20226;-71
2023/10/29 07:17:35;;;;;;;1.05;0.90;;;19.50;78.00;;;;;;5114916;28;20187;-71
2023/10/29 07:20:01;;;;;;;0.80;0.80;;;19.50;78.00;;;;;;5106777;28;20567;-71
2023/10/29 07:22:27;;;;;;;0.80;0.80;;;19.50;77.90;;;;;;5086483;28;20646;-71
2023/10/29 07:24:52;;;;;;;0.80;0.80;;;19.50;77.90;;;;;;5070431;28;20204;-71
2023/10/29 07:27:18;;;;;;;1.67;0.73;;;19.50;77.90;;;;;;5096726;28;20659;-71
2023/10/29 07:29:44;;;;;;;0.80;0.80;;;19.50;77.90;;;;;;5071349;28;20184;-71
2023/10/29 07:32:09;;;;;;;0.70;0.70;;;19.50;78.00;;;;;;5114758;28;20237;-71
2023/10/29 07:34:35;;;;;;;0.80;0.80;;;19.50;77.90;;;;;;5070250;28;20169;-71
2023/10/29 07:37:01;;;;;;;0.77;0.77;;;19.50;77.90;;;;;;5095637;28;20190;-71
2023/10/29 07:39:27;;;;;;;0.77;0.70;;;19.50;78.00;;;;;;5089669;28;20189;-72
2023/10/29 07:41:53;;;;;;;1.20;1.10;;;19.50;78.10;;;;;;5070369;28;20188;-71
2023/10/29 07:44:18;;;;;;;1.50;1.40;;;19.50;78.00;;;;;;5090247;28;20187;-71
2023/10/29 07:46:44;;;;;;;1.23;1.13;;;19.50;78.00;;;;;;5108103;28;20214;-71
2023/10/29 07:49:10;;;;;;;1.10;1.10;;;19.50;77.80;;;;;;5104952;28;20192;-71
2023/10/29 07:51:35;;;;;;;1.00;1.00;;;19.50;78.00;;;;;;5083237;28;20220;-71
2023/10/29 07:54:02;;;;;;;0.90;0.90;;;19.50;78.10;;;;;;5105535;28;20199;-71
2023/10/29 07:56:27;;;;;;;0.95;0.90;;;19.50;78.00;;;;;;5085640;28;20208;-70
2023/10/29 07:58:53;;;;;;;0.88;0.88;;;19.50;77.90;;;;;;5089828;28;20191;-71
2023/10/29 08:01:19;;;;;;;1.05;0.95;;;19.50;77.90;;;;;;5087735;28;20208;-71
2023/10/29 08:03:46;;;;;;;1.10;1.00;;;19.50;77.90;;;;;;5090075;28;20180;-71
2023/10/29 08:06:13;;;;;;;1.23;1.13;;;19.50;78.00;;;;;;5086799;28;20231;-71
2023/10/29 08:08:40;;;;;;;1.13;1.02;;;19.50;77.90;;;;;;5096349;28;20188;-71
2023/10/29 08:11:06;;;;;;;1.00;1.00;;;19.50;78.00;;;;;;5109816;28;20208;-71
2023/10/29 08:13:31;;;;;;;0.90;0.90;;;19.50;77.80;;;;;;5091088;28;20185;-71
2023/10/29 08:15:58;;;;;;;1.13;1.05;;;19.50;77.80;;;;;;5086464;28;20222;-71
2023/10/29 08:18:24;;;;;;;1.25;1.15;;;19.50;77.90;;;;;;5109435;28;20199;-71
2023/10/29 08:20:50;;;;;;;1.10;1.00;;;19.50;77.90;;;;;;5072731;28;20200;-71
2023/10/29 08:23:16;;;;;;;1.27;1.17;;;19.50;77.80;;;;;;5109701;28;20192;-71
2023/10/29 08:25:41;;;;;;;1.48;1.30;;;19.50;77.90;;;;;;5113716;28;20307;-71
2023/10/29 08:28:08;;;;;;;1.30;1.20;;;19.50;77.90;;;;;;5084375;28;20181;-71
2023/10/29 08:30:35;;;;;;;1.20;1.15;;;19.50;77.80;;;;;;5070789;28;20217;-71
2023/10/29 08:33:01;;;;;;;1.15;1.10;;;19.50;77.80;;;;;;5071033;28;20252;-71
2023/10/29 08:35:27;;;;;;;1.00;1.00;;;19.50;78.00;;;;;;5095142;28;20690;-71
2023/10/29 08:37:53;;;;;;;1.73;1.33;;;19.50;78.00;;;;;;5095170;28;20208;-71
2023/10/29 08:40:18;;;;;;;1.42;1.13;;;19.60;77.90;;;;;;5082881;28;20256;-71
2023/10/29 08:42:44;;;;;;;1.17;1.08;;;19.50;77.90;;;;;;5106781;28;20307;-71
2023/10/29 08:45:12;;;;;;;1.98;1.40;;;19.50;77.70;;;;;;5071386;28;20274;-71
2023/10/29 08:47:38;;;;;;;1.17;1.08;;;19.50;78.00;;;;;;5091255;28;20207;-71
2023/10/29 08:50:08;;;;;;;1.25;1.15;;;19.50;77.90;;;;;;5065816;28;20199;-71
2023/10/29 08:52:34;;;;;;;1.85;1.15;;;19.50;77.90;;;;;;5085317;28;20176;-71
2023/10/29 08:54:59;;;;;;;1.23;1.13;;;19.50;77.90;;;;;;5066790;28;20563;-71
2023/10/29 08:57:25;;;;;;;1.35;1.13;;;19.50;77.80;;;;;;5089594;28;20188;-71
2023/10/29 08:59:51;;;;;;;1.25;1.15;;;19.60;78.00;;;;;;5090914;28;20184;-71
2023/10/29 09:02:16;;;;;;;1.52;0.98;;;19.50;77.90;;;;;;5094939;28;20188;-69
2023/10/29 09:04:42;;;;;;;1.13;1.02;;;19.50;77.80;;;;;;5090484;28;20215;-69
2023/10/29 09:07:08;;;;;;;1.33;1.02;;;19.60;77.90;;;;;;5086657;28;20172;-68
2023/10/29 09:09:36;;;;;;;1.80;1.33;;;19.60;77.90;;;;;;5072766;28;20177;-71
2023/10/29 09:12:03;;;;;;;1.33;1.10;;;19.50;77.90;;;;;;5095207;28;20299;-70
2023/10/29 09:14:28;;;;;;;1.30;1.20;;;19.60;78.00;;;;;;5085837;28;20268;-69
2023/10/29 09:16:54;;;;;;;1.17;1.10;;;19.60;78.70;;;;;;5082341;28;20185;-70
2023/10/29 09:19:20;;;;;;;1.92;1.10;;;19.60;77.90;;;;;;5087667;28;20176;-70
2023/10/29 09:21:47;;;;;;;1.83;1.20;;;19.60;78.00;;;;;;5082605;28;20184;-69
2023/10/29 09:24:13;;;;;;;1.60;1.50;;;19.60;77.90;;;;;;5086206;28;20218;-70
2023/10/29 09:26:40;;;;;;;1.70;1.50;;;19.60;77.90;;;;;;5081975;28;20200;-70
2023/10/29 09:29:08;;;;;;;1.50;1.40;;;19.60;78.00;;;;;;5084222;28;20271;-69
2023/10/29 09:31:34;;;;;;;1.30;1.20;;;19.60;77.90;;;;;;5089314;28;20200;-69
2023/10/29 09:34:01;;;;;;;1.10;1.05;;;19.60;77.90;;;;;;5089421;28;20191;-69
2023/10/29 09:36:27;;;;;;;1.63;1.25;;;19.60;77.90;;;;;;5090815;28;20758;-69
2023/10/29 09:38:52;;;;;;;1.40;1.30;;;19.60;77.90;;;;;;5112628;28;20208;-70
2023/10/29 09:41:18;;;;;;;1.65;1.17;;;19.60;78.00;;;;;;5109072;28;20283;-70
2023/10/29 09:43:46;;;;;;;1.30;1.20;;;19.60;78.00;;;;;;5100438;28;20188;-68
2023/10/29 09:46:12;;;;;;;1.30;1.20;;;19.60;77.90;;;;;;5088744;28;20238;-70
2023/10/29 09:48:42;;;;;;;2.40;1.40;;;19.60;77.90;;;;;;5093395;28;20677;-69
2023/10/29 09:51:08;;;;;;;3.92;1.10;;;19.60;77.80;;;;;;5107467;28;20233;-70
2023/10/29 09:53:37;;;;;;;1.20;1.10;;;19.70;78.00;;;;;;5092383;28;20179;-69
2023/10/29 09:56:10;;;;;;;1.25;1.15;;;19.60;77.80;;;;;;5095899;28;20199;-69
2023/10/29 09:58:36;;;;;;;1.40;1.30;;;19.60;77.80;;;;;;5064584;28;20181;-70
2023/10/29 10:01:05;;;;;;;1.40;1.20;;;19.60;77.80;;;;;;5069063;28;20195;-70
2023/10/29 10:03:32;;;;;;;2.13;1.20;;;19.60;77.80;;;;;;5082397;28;20272;-70
2023/10/29 10:05:58;;;;;;;1.40;1.30;;;19.60;77.70;;;;;;5065750;28;20252;-70
2023/10/29 10:08:30;;;;;;;1.67;1.40;;;19.60;77.80;;;;;;5080515;28;20216;-69
2023/10/29 10:10:58;;;;;;;1.00;0.90;;;19.60;77.70;;;;;;5087355;28;20216;-69
2023/10/29 10:13:41;;;;;;;1.35;0.90;;;19.70;77.80;;;;;;5085650;28;20183;-69
2023/10/29 10:16:14;;;;;;;2.00;1.30;;;19.60;77.60;;;;;;5073904;28;20196;-69
2023/10/29 10:18:58;;;;;;;1.17;1.10;;;19.70;77.90;;;;;;5071041;28;20892;-69
2023/10/29 10:21:40;;;;;;;1.10;1.00;;;19.60;78.70;;;;;;5106371;28;20193;-70
2023/10/29 10:24:07;;;;;;;2.33;1.33;;;19.60;77.80;;;;;;5108951;28;20195;-70
2023/10/29 10:26:36;;;;;;;1.20;1.15;;;19.70;77.80;;;;;;5109202;28;20258;-70
2023/10/29 10:29:03;;;;;;;1.20;1.10;;;19.70;77.80;;;;;;5076604;28;20184;-70
2023/10/29 10:31:33;;;;;;;3.15;1.20;;;19.60;77.60;;;;;;5091862;28;20642;-69
2023/10/29 10:34:18;;;;;;;1.45;1.00;;;19.70;77.70;;;;;;5093714;28;20188;-70
2023/10/29 10:36:49;;;;;;;1.38;0.98;;;19.70;77.60;;;;;;5109137;28;20233;-70
2023/10/29 10:39:19;;;;;;;2.20;1.20;;;19.70;77.60;;;;;;5109066;28;20192;-69
2023/10/29 10:41:47;;;;;;;0.90;0.90;;;19.70;77.80;;;;;;5102709;28;20208;-69
2023/10/29 10:44:14;;;;;;;2.60;1.27;;;19.70;77.70;;;;;;5093189;28;20194;-69
2023/10/29 10:46:50;;;;;;;1.30;1.08;;;19.70;77.80;;;;;;5070168;28;20218;-70
2023/10/29 10:49:18;;;;;;;1.10;1.00;;;19.70;77.70;;;;;;5079769;28;20191;-70
2023/10/29 10:51:47;;;;;;;1.27;1.00;;;19.70;77.70;;;;;;5109062;28;20204;-69
2023/10/29 10:54:17;;;;;;;1.30;1.10;;;19.70;77.70;;;;;;5097657;28;20267;-70
2023/10/29 10:56:45;;;;;;;1.40;1.13;;;19.70;77.60;;;;;;5080476;28;20199;-69
2023/10/29 10:59:10;;;;;;;2.03;1.20;;;19.70;77.70;;;;;;5094067;28;20257;-69
2023/10/29 11:01:38;;;;;;;1.45;1.20;;;19.70;77.60;;;;;;5112352;28;20263;-69
2023/10/29 11:04:08;;;;;;;1.05;1.00;;;19.70;77.60;;;;;;5092451;28;20194;-70
2023/10/29 11:06:36;;;;;;;1.20;1.05;;;19.70;77.70;;;;;;5115358;28;20207;-70
2023/10/29 11:09:05;;;;;;;2.53;0.90;;;19.70;77.70;;;;;;5092627;28;20230;-69
2023/10/29 11:11:48;;;;;;;0.98;0.98;;;19.70;77.70;;;;;;5095089;28;20251;-69
2023/10/29 11:14:18;;;;;;;1.98;1.10;;;19.70;77.70;;;;;;5109231;28;20566;-70
2023/10/29 11:16:55;;;;;;;1.25;1.15;;;19.70;77.70;;;;;;5094834;28;20204;-70
2023/10/29 11:19:34;;;;;;;1.05;0.90;;;19.70;77.70;;;;;;5108692;28;20183;-70
2023/10/29 11:22:29;;;;;;;1.20;1.10;;;19.70;77.80;;;;;;5097098;28;20261;-69
2023/10/29 11:25:10;;;;;;;0.98;0.93;;;19.70;77.70;;;;;;5108625;28;20231;-70
2023/10/29 11:27:41;;;;;;;1.02;0.80;;;19.70;77.70;;;;;;5094727;28;20189;-70
2023/10/29 11:30:21;;;;;;;1.10;1.00;;;19.70;77.80;;;;;;5094888;28;20583;-70
2023/10/29 11:33:12;;;;;;;0.85;0.70;;;19.70;77.80;;;;;;5082379;28;20233;-70
2023/10/29 11:35:40;;;;;;;0.98;0.82;;;19.70;77.80;;;;;;5094795;28;20588;-70
2023/10/29 11:38:33;;;;;;;1.02;0.93;;;19.70;77.80;;;;;;5093930;28;20168;-70
2023/10/29 11:40:59;;;;;;;1.40;1.30;;;19.70;77.60;;;;;;5084660;28;20280;-71
2023/10/29 11:43:26;;;;;;;0.77;0.73;;;19.70;77.70;;;;;;5078591;28;20215;-69
2023/10/29 11:45:56;;;;;;;1.45;0.90;;;19.70;77.60;;;;;;5094818;28;20234;-70
2023/10/29 11:48:22;;;;;;;1.77;0.88;;;19.70;78.00;;;;;;5082928;28;20207;-70
2023/10/29 11:51:21;;;;;;;0.82;0.82;;;19.70;77.40;;;;;;5095886;28;20228;-70
2023/10/29 11:53:47;;;;;;;0.98;0.88;;;19.70;77.60;;;;;;5048059;28;20204;-70
2023/10/29 11:56:13;;;;;;;1.20;1.10;;;19.70;77.60;;;;;;5103763;28;20230;-70
2023/10/29 11:58:39;;;;;;;0.90;0.90;;;19.80;77.50;;;;;;5112815;28;20191;-70
2023/10/29 12:01:06;;;;;;;1.05;0.95;;;19.70;77.60;;;;;;5094650;28;20199;-70
2023/10/29 12:03:32;;;;;;;1.35;0.85;;;19.80;77.70;;;;;;5094339;28;20267;-69
2023/10/29 12:05:58;;;;;;;1.13;1.02;;;19.80;77.70;;;;;;5112995;28;20294;-70
2023/10/29 12:08:30;;;;;;;1.15;0.93;;;19.80;77.70;;;;;;5076641;28;20189;-70
2023/10/29 12:10:58;;;;;;;2.78;1.10;;;19.80;77.70;;;;;;5093339;28;20208;-70
2023/10/29 12:13:23;;;;;;;1.20;1.10;;;19.80;77.60;;;;;;5103946;28;20172;-70
2023/10/29 12:15:58;;;;;;;0.95;0.88;;;19.80;77.60;;;;;;5079219;28;20200;-70
2023/10/29 12:18:25;;;;;;;1.25;1.10;;;19.80;77.70;;;;;;5095581;28;20191;-70
2023/10/29 12:21:09;;;;;;;1.52;0.82;;;19.80;77.50;;;;;;5095968;28;20188;-70
2023/10/29 12:23:36;;;;;;;0.82;0.80;;;19.80;77.50;;;;;;5086906;28;20186;-70
2023/10/29 12:26:09;;;;;;;2.28;1.05;;;19.80;77.50;;;;;;5092115;28;20248;-71
2023/10/29 12:28:36;;;;;;;0.80;0.80;;;19.80;77.60;;;;;;5112692;28;20552;-70
2023/10/29 12:31:03;;;;;;;0.77;0.73;;;19.80;78.20;;;;;;5093376;28;20310;-69
2023/10/29 12:33:33;;;;;;;0.90;0.80;;;19.80;77.60;;;;;;5077042;28;20184;-70
2023/10/29 12:36:02;;;;;;;1.25;0.70;;;19.80;77.70;;;;;;5078848;28;20215;-70
2023/10/29 12:38:28;;;;;;;1.55;1.20;;;19.80;77.60;;;;;;5112453;28;20184;-69
2023/10/29 12:41:06;;;;;;;1.23;1.00;;;19.80;77.40;;;;;;5086103;28;20233;-70
2023/10/29 12:43:52;;;;;;;1.15;1.05;;;19.80;77.60;;;;;;5078071;28;20195;-69
2023/10/29 12:46:19;;;;;;;1.67;0.80;;;19.80;77.50;;;;;;5105820;28;20204;-70
2023/10/29 12:48:58;;;;;;;1.00;0.75;;;19.80;77.60;;;;;;5083423;28;20242;-69